createdAt,value
2019-02-28T00:00:06.621Z,1009.71
2019-02-28T00:01:04.822Z,1009.68
2019-02-28T00:02:04.795Z,1009.68
2019-02-28T00:03:04.773Z,1009.61
2019-02-28T00:04:04.755Z,1009.65
2019-02-28T00:05:06.121Z,1009.64
2019-02-28T00:06:04.707Z,1009.61
2019-02-28T00:07:04.680Z,1009.58
2019-02-28T00:08:04.659Z,1009.59
2019-02-28T00:09:04.635Z,1009.62
2019-02-28T00:10:04.609Z,1009.60
2019-02-28T00:11:05.043Z,1009.60
2019-02-28T00:12:04.565Z,1009.54
2019-02-28T00:13:04.543Z,1009.53
2019-02-28T00:14:04.519Z,1009.52
2019-02-28T00:15:04.496Z,1009.52
2019-02-28T00:16:04.472Z,1009.51
2019-02-28T00:17:06.220Z,1009.47
2019-02-28T00:18:04.427Z,1009.45
2019-02-28T00:19:04.397Z,1009.40
2019-02-28T00:20:04.377Z,1009.42
2019-02-28T00:21:06.913Z,1009.43
2019-02-28T00:22:04.335Z,1009.37
2019-02-28T00:23:04.313Z,1009.36
2019-02-28T00:24:04.287Z,1009.33
2019-02-28T00:25:05.062Z,1009.30
2019-02-28T00:26:04.237Z,1009.27
2019-02-28T00:27:04.218Z,1009.24
2019-02-28T00:28:04.189Z,1009.20
2019-02-28T00:29:04.170Z,1009.15
2019-02-28T00:30:06.043Z,1009.19
2019-02-28T00:31:04.123Z,1009.14
2019-02-28T00:32:04.098Z,1009.10
2019-02-28T00:33:04.081Z,1009.04
2019-02-28T00:34:05.369Z,1009.05
2019-02-28T00:35:04.022Z,1009.06
2019-02-28T00:36:04.005Z,1008.99
2019-02-28T00:37:03.985Z,1009.03
2019-02-28T00:38:03.966Z,1009.00
2019-02-28T00:39:04.201Z,1009.02
2019-02-28T00:40:06.656Z,1009.00
2019-02-28T00:41:03.888Z,1008.97
2019-02-28T00:42:03.863Z,1009.01
2019-02-28T00:43:03.839Z,1008.96
2019-02-28T00:44:04.474Z,1008.95
2019-02-28T00:45:03.844Z,1008.90
2019-02-28T00:46:03.770Z,1008.90
2019-02-28T00:47:03.752Z,1008.90
2019-02-28T00:48:03.725Z,1008.87
2019-02-28T00:49:03.700Z,1008.84
2019-02-28T00:50:03.678Z,1008.82
2019-02-28T00:51:03.658Z,1008.83
2019-02-28T00:52:03.627Z,1008.76
2019-02-28T00:53:06.542Z,1008.75
2019-02-28T00:54:03.585Z,1008.73
2019-02-28T00:55:03.558Z,1008.71
2019-02-28T00:56:03.536Z,1008.72
2019-02-28T00:57:03.512Z,1008.70
2019-02-28T00:58:03.486Z,1008.73
2019-02-28T00:59:03.470Z,1008.71
2019-02-28T01:00:05.550Z,1008.74
2019-02-28T01:01:03.422Z,1008.70
2019-02-28T01:02:03.397Z,1008.68
2019-02-28T01:03:03.373Z,1008.69
2019-02-28T01:04:03.349Z,1008.69
2019-02-28T01:05:04.826Z,1008.71
2019-02-28T01:06:03.305Z,1008.67
2019-02-28T01:07:03.280Z,1008.65
2019-02-28T01:08:03.255Z,1008.65
2019-02-28T01:09:03.232Z,1008.70
2019-02-28T01:10:04.539Z,1008.67
2019-02-28T01:11:03.182Z,1008.62
2019-02-28T01:12:03.162Z,1008.63
2019-02-28T01:13:03.136Z,1008.58
2019-02-28T01:14:03.117Z,1008.54
2019-02-28T01:15:03.093Z,1008.50
2019-02-28T01:16:03.069Z,1008.50
2019-02-28T01:17:03.042Z,1008.50
2019-02-28T01:18:03.022Z,1008.45
2019-02-28T01:19:02.998Z,1008.48
2019-02-28T01:20:02.979Z,1008.44
2019-02-28T01:21:02.948Z,1008.37
2019-02-28T01:22:02.930Z,1008.40
2019-02-28T01:23:02.901Z,1008.32
2019-02-28T01:24:02.881Z,1008.36
2019-02-28T01:25:02.860Z,1008.28
2019-02-28T01:26:02.833Z,1008.26
2019-02-28T01:27:02.806Z,1008.26
2019-02-28T01:28:02.791Z,1008.24
2019-02-28T01:29:02.844Z,1008.22
2019-02-28T01:30:02.741Z,1008.17
2019-02-28T01:31:02.719Z,1008.15
2019-02-28T01:32:02.696Z,1008.15
2019-02-28T01:33:02.672Z,1008.16
2019-02-28T01:34:02.648Z,1008.15
2019-02-28T01:35:05.609Z,1008.09
2019-02-28T01:36:02.600Z,1008.07
2019-02-28T01:37:02.581Z,1008.12
2019-02-28T01:38:02.555Z,1008.04
2019-02-28T01:39:02.534Z,1008.01
2019-02-28T01:40:04.327Z,1007.98
2019-02-28T01:41:02.492Z,1008.00
2019-02-28T01:42:02.457Z,1008.01
2019-02-28T01:43:02.437Z,1008.03
2019-02-28T01:44:02.833Z,1008.02
2019-02-28T01:45:02.392Z,1008.02
2019-02-28T01:46:02.364Z,1007.99
2019-02-28T01:47:02.345Z,1008.00
2019-02-28T01:48:02.319Z,1007.96
2019-02-28T01:49:02.299Z,1007.97
2019-02-28T01:50:02.275Z,1007.97
2019-02-28T01:51:02.252Z,1007.99
2019-02-28T01:52:02.226Z,1007.96
2019-02-28T01:53:02.208Z,1007.95
2019-02-28T01:54:02.183Z,1007.96
2019-02-28T01:55:02.160Z,1007.96
2019-02-28T01:56:03.120Z,1007.96
2019-02-28T01:57:02.112Z,1007.94
2019-02-28T01:58:02.088Z,1007.94
2019-02-28T01:59:02.070Z,1007.85
2019-02-28T02:00:02.046Z,1007.88
2019-02-28T02:01:02.014Z,1007.85
2019-02-28T02:02:05.553Z,1007.89
2019-02-28T02:03:01.971Z,1007.88
2019-02-28T02:04:01.952Z,1007.85
2019-02-28T02:05:01.927Z,1007.78
2019-02-28T02:06:01.900Z,1007.79
2019-02-28T02:07:01.877Z,1007.76
2019-02-28T02:08:06.527Z,1007.78
2019-02-28T02:09:01.825Z,1007.69
2019-02-28T02:10:01.808Z,1007.63
2019-02-28T02:11:01.783Z,1007.62
2019-02-28T02:12:01.764Z,1007.56
2019-02-28T02:13:03.247Z,1007.63
2019-02-28T02:14:01.713Z,1007.63
2019-02-28T02:15:01.689Z,1007.65
2019-02-28T02:16:01.663Z,1007.68
2019-02-28T02:17:01.982Z,1007.63
2019-02-28T02:18:01.621Z,1007.62
2019-02-28T02:19:01.600Z,1007.59
2019-02-28T02:20:01.575Z,1007.59
2019-02-28T02:21:01.551Z,1007.60
2019-02-28T02:22:01.530Z,1007.59
2019-02-28T02:23:01.505Z,1007.68
2019-02-28T02:24:01.481Z,1007.63
2019-02-28T02:25:03.143Z,1007.59
2019-02-28T02:26:01.435Z,1007.66
2019-02-28T02:27:01.407Z,1007.66
2019-02-28T02:28:01.388Z,1007.68
2019-02-28T02:29:01.924Z,1007.63
2019-02-28T02:30:01.401Z,1007.64
2019-02-28T02:31:01.325Z,1007.54
2019-02-28T02:32:02.603Z,1007.56
2019-02-28T02:33:01.271Z,1007.56
2019-02-28T02:34:01.270Z,1007.55
2019-02-28T02:35:05.978Z,1007.54
2019-02-28T02:36:01.207Z,1007.53
2019-02-28T02:37:01.175Z,1007.48
2019-02-28T02:38:03.507Z,1007.48
2019-02-28T02:39:01.127Z,1007.46
2019-02-28T02:40:01.138Z,1007.44
2019-02-28T02:41:01.192Z,1007.41
2019-02-28T02:42:01.063Z,1007.37
2019-02-28T02:43:01.033Z,1007.41
2019-02-28T02:44:01.037Z,1007.39
2019-02-28T02:45:05.111Z,1007.38
2019-02-28T02:46:00.967Z,1007.46
2019-02-28T02:47:00.942Z,1007.35
2019-02-28T02:48:05.164Z,1007.31
2019-02-28T02:49:00.899Z,1007.27
2019-02-28T02:50:00.874Z,1007.30
2019-02-28T02:51:00.847Z,1007.26
2019-02-28T02:52:00.826Z,1007.21
2019-02-28T02:53:05.066Z,1007.21
2019-02-28T02:54:00.779Z,1007.20
2019-02-28T02:55:00.757Z,1007.16
2019-02-28T02:56:04.095Z,1007.16
2019-02-28T02:57:00.705Z,1007.13
2019-02-28T02:58:00.698Z,1007.10
2019-02-28T02:59:02.134Z,1007.13
2019-02-28T03:00:00.649Z,1007.07
2019-02-28T03:01:00.617Z,1007.05
2019-02-28T03:02:00.605Z,1006.97
2019-02-28T03:03:00.569Z,1007.00
2019-02-28T03:04:00.547Z,1006.95
2019-02-28T03:05:00.521Z,1006.99
2019-02-28T03:06:00.499Z,1006.96
2019-02-28T03:07:00.501Z,1006.97
2019-02-28T03:08:01.128Z,1007.00
2019-02-28T03:09:00.428Z,1006.95
2019-02-28T03:10:00.433Z,1006.97
2019-02-28T03:11:00.378Z,1007.06
2019-02-28T03:12:00.364Z,1007.01
2019-02-28T03:13:04.519Z,1007.03
2019-02-28T03:14:00.312Z,1007.05
2019-02-28T03:15:00.511Z,1006.98
2019-02-28T03:16:00.541Z,1007.01
2019-02-28T03:17:00.241Z,1007.05
2019-02-28T03:18:00.216Z,1006.99
2019-02-28T03:19:00.199Z,1007.01
2019-02-28T03:20:00.705Z,1006.96
2019-02-28T03:21:00.152Z,1006.97
2019-02-28T03:22:00.125Z,1006.88
2019-02-28T03:23:02.232Z,1006.88
2019-02-28T03:24:00.081Z,1006.87
2019-02-28T03:25:00.059Z,1006.90
2019-02-28T03:26:05.284Z,1006.80
2019-02-28T03:27:00.014Z,1006.85
2019-02-28T03:27:59.982Z,1006.85
2019-02-28T03:28:59.964Z,1006.81
2019-02-28T03:29:59.937Z,1006.89
2019-02-28T03:31:11.989Z,1006.86
2019-02-28T03:32:00.029Z,1006.82
2019-02-28T03:32:59.866Z,1006.84
2019-02-28T03:34:10.160Z,1006.84
2019-02-28T03:34:59.887Z,1006.80
2019-02-28T03:35:59.794Z,1006.83
2019-02-28T03:36:59.773Z,1006.80
2019-02-28T03:37:59.752Z,1006.73
2019-02-28T03:38:59.727Z,1006.71
2019-02-28T03:40:04.335Z,1006.70
2019-02-28T03:40:59.678Z,1006.69
2019-02-28T03:41:59.659Z,1006.71
2019-02-28T03:43:05.270Z,1006.66
2019-02-28T03:43:59.613Z,1006.64
2019-02-28T03:44:59.590Z,1006.64
2019-02-28T03:45:59.563Z,1006.63
2019-02-28T03:46:59.536Z,1006.64
2019-02-28T03:47:59.869Z,1006.66
2019-02-28T03:48:59.491Z,1006.65
2019-02-28T03:49:59.468Z,1006.68
2019-02-28T03:50:59.450Z,1006.67
2019-02-28T03:52:05.007Z,1006.70
2019-02-28T03:52:59.394Z,1006.64
2019-02-28T03:53:59.373Z,1006.64
2019-02-28T03:55:03.204Z,1006.61
2019-02-28T03:55:59.328Z,1006.63
2019-02-28T03:56:59.311Z,1006.62
2019-02-28T03:58:03.884Z,1006.58
2019-02-28T03:58:59.257Z,1006.62
2019-02-28T03:59:59.342Z,1006.61
2019-02-28T04:00:59.212Z,1006.62
2019-02-28T04:01:59.187Z,1006.60
2019-02-28T04:02:59.299Z,1006.59
2019-02-28T04:03:59.141Z,1006.56
2019-02-28T04:04:59.113Z,1006.56
2019-02-28T04:06:03.350Z,1006.55
2019-02-28T04:06:59.069Z,1006.58
2019-02-28T04:07:59.050Z,1006.57
2019-02-28T04:09:07.292Z,1006.56
2019-02-28T04:09:58.997Z,1006.56
2019-02-28T04:10:58.982Z,1006.45
2019-02-28T04:11:58.950Z,1006.49
2019-02-28T04:12:58.934Z,1006.48
2019-02-28T04:13:58.906Z,1006.48
2019-02-28T04:14:58.882Z,1006.44
2019-02-28T04:16:08.380Z,1006.48
2019-02-28T04:16:58.833Z,1006.42
2019-02-28T04:17:58.811Z,1006.35
2019-02-28T04:18:58.790Z,1006.30
2019-02-28T04:20:00.053Z,1006.30
2019-02-28T04:20:58.745Z,1006.29
2019-02-28T04:21:58.713Z,1006.27
2019-02-28T04:23:00.103Z,1006.26
2019-02-28T04:23:58.669Z,1006.24
2019-02-28T04:24:58.644Z,1006.27
2019-02-28T04:25:58.645Z,1006.24
2019-02-28T04:27:05.891Z,1006.24
2019-02-28T04:27:58.578Z,1006.21
2019-02-28T04:28:58.555Z,1006.24
2019-02-28T04:30:06.381Z,1006.24
2019-02-28T04:30:58.505Z,1006.24
2019-02-28T04:31:58.483Z,1006.23
2019-02-28T04:33:01.411Z,1006.21
2019-02-28T04:33:58.433Z,1006.19
2019-02-28T04:34:58.407Z,1006.19
2019-02-28T04:36:00.638Z,1006.13
2019-02-28T04:36:58.361Z,1006.16
2019-02-28T04:37:58.343Z,1006.11
2019-02-28T04:38:58.324Z,1006.15
2019-02-28T04:39:58.298Z,1006.11
2019-02-28T04:40:59.134Z,1006.14
2019-02-28T04:41:58.251Z,1006.13
2019-02-28T04:42:58.221Z,1006.10
2019-02-28T04:43:58.197Z,1006.10
2019-02-28T04:44:58.173Z,1006.06
2019-02-28T04:45:58.504Z,1006.07
2019-02-28T04:46:58.125Z,1006.04
2019-02-28T04:47:58.105Z,1006.03
2019-02-28T04:48:58.095Z,1006.01
2019-02-28T04:49:58.069Z,1005.98
2019-02-28T04:50:58.033Z,1005.87
2019-02-28T04:51:58.017Z,1005.84
2019-02-28T04:52:57.987Z,1005.89
2019-02-28T04:53:57.963Z,1005.91
2019-02-28T04:54:59.395Z,1005.88
2019-02-28T04:55:57.915Z,1005.88
2019-02-28T04:56:57.892Z,1005.85
2019-02-28T04:57:57.874Z,1005.85
2019-02-28T04:58:59.545Z,1005.84
2019-02-28T04:59:57.832Z,1005.82
2019-02-28T05:00:57.794Z,1005.77
2019-02-28T05:01:57.775Z,1005.73
2019-02-28T05:02:57.749Z,1005.70
2019-02-28T05:03:59.211Z,1005.72
2019-02-28T05:04:57.702Z,1005.67
2019-02-28T05:05:57.679Z,1005.70
2019-02-28T05:06:57.656Z,1005.73
2019-02-28T05:07:57.634Z,1005.69
2019-02-28T05:08:57.606Z,1005.70
2019-02-28T05:09:57.586Z,1005.65
2019-02-28T05:10:57.563Z,1005.68
2019-02-28T05:11:57.543Z,1005.74
2019-02-28T05:12:57.514Z,1005.72
2019-02-28T05:13:57.500Z,1005.74
2019-02-28T05:14:58.474Z,1005.78
2019-02-28T05:15:57.446Z,1005.75
2019-02-28T05:16:57.419Z,1005.74
2019-02-28T05:17:57.397Z,1005.74
2019-02-28T05:18:58.262Z,1005.74
2019-02-28T05:19:57.353Z,1005.70
2019-02-28T05:20:57.324Z,1005.69
2019-02-28T05:21:57.304Z,1005.68
2019-02-28T05:22:59.266Z,1005.74
2019-02-28T05:23:57.256Z,1005.77
2019-02-28T05:24:57.232Z,1005.73
2019-02-28T05:25:57.210Z,1005.75
2019-02-28T05:26:59.877Z,1005.73
2019-02-28T05:27:57.166Z,1005.74
2019-02-28T05:28:57.147Z,1005.77
2019-02-28T05:29:57.119Z,1005.74
2019-02-28T05:30:57.092Z,1005.77
2019-02-28T05:31:58.085Z,1005.72
2019-02-28T05:32:57.048Z,1005.68
2019-02-28T05:33:57.024Z,1005.63
2019-02-28T05:34:57.003Z,1005.59
2019-02-28T05:35:57.131Z,1005.61
2019-02-28T05:36:56.954Z,1005.56
2019-02-28T05:37:56.936Z,1005.51
2019-02-28T05:38:57.340Z,1005.49
2019-02-28T05:39:56.886Z,1005.56
2019-02-28T05:40:56.864Z,1005.52
2019-02-28T05:41:56.836Z,1005.53
2019-02-28T05:42:58.416Z,1005.52
2019-02-28T05:43:56.796Z,1005.56
2019-02-28T05:44:56.770Z,1005.55
2019-02-28T05:45:56.740Z,1005.50
2019-02-28T05:46:58.107Z,1005.52
2019-02-28T05:47:56.697Z,1005.53
2019-02-28T05:48:56.678Z,1005.63
2019-02-28T05:49:56.652Z,1005.63
2019-02-28T05:50:56.629Z,1005.63
2019-02-28T05:51:59.194Z,1005.57
2019-02-28T05:52:56.582Z,1005.59
2019-02-28T05:53:56.554Z,1005.60
2019-02-28T05:54:57.863Z,1005.57
2019-02-28T05:55:59.879Z,1005.58
2019-02-28T05:56:56.489Z,1005.57
2019-02-28T05:57:56.465Z,1005.56
2019-02-28T05:58:56.441Z,1005.54
2019-02-28T06:00:01.347Z,1005.51
2019-02-28T06:00:56.396Z,1005.50
2019-02-28T06:01:56.370Z,1005.51
2019-02-28T06:02:58.230Z,1005.51
2019-02-28T06:03:56.323Z,1005.54
2019-02-28T06:04:56.307Z,1005.55
2019-02-28T06:05:56.278Z,1005.57
2019-02-28T06:06:56.252Z,1005.60
2019-02-28T06:07:56.234Z,1005.63
2019-02-28T06:08:56.204Z,1005.58
2019-02-28T06:09:56.183Z,1005.62
2019-02-28T06:11:00.668Z,1005.62
2019-02-28T06:11:56.143Z,1005.65
2019-02-28T06:12:56.121Z,1005.61
2019-02-28T06:13:56.098Z,1005.66
2019-02-28T06:15:02.216Z,1005.67
2019-02-28T06:15:56.047Z,1005.66
2019-02-28T06:16:56.025Z,1005.70
2019-02-28T06:17:55.999Z,1005.68
2019-02-28T06:18:55.975Z,1005.70
2019-02-28T06:19:55.951Z,1005.79
2019-02-28T06:20:55.930Z,1005.80
2019-02-28T06:21:56.340Z,1005.80
2019-02-28T06:22:55.883Z,1005.76
2019-02-28T06:23:55.860Z,1005.79
2019-02-28T06:24:55.841Z,1005.81
2019-02-28T06:25:59.378Z,1005.82
2019-02-28T06:26:57.016Z,1005.82
2019-02-28T06:27:55.765Z,1005.82
2019-02-28T06:28:55.746Z,1005.73
2019-02-28T06:29:55.721Z,1005.74
2019-02-28T06:30:55.718Z,1005.81
2019-02-28T06:31:55.681Z,1005.76
2019-02-28T06:32:59.201Z,1005.78
2019-02-28T06:33:55.628Z,1005.73
2019-02-28T06:34:55.603Z,1005.78
2019-02-28T06:35:55.584Z,1005.78
2019-02-28T06:36:55.556Z,1005.78
2019-02-28T06:37:55.534Z,1005.79
2019-02-28T06:38:55.586Z,1005.81
2019-02-28T06:39:58.591Z,1005.81
2019-02-28T06:40:55.468Z,1005.83
2019-02-28T06:41:55.438Z,1005.82
2019-02-28T06:42:55.925Z,1005.79
2019-02-28T06:43:55.397Z,1005.86
2019-02-28T06:44:55.374Z,1005.82
2019-02-28T06:45:55.351Z,1005.79
2019-02-28T06:46:55.334Z,1005.77
2019-02-28T06:47:55.307Z,1005.81
2019-02-28T06:49:01.628Z,1005.76
2019-02-28T06:49:55.256Z,1005.80
2019-02-28T06:50:55.234Z,1005.83
2019-02-28T06:51:55.224Z,1005.76
2019-02-28T06:52:56.393Z,1005.83
2019-02-28T06:53:55.164Z,1005.83
2019-02-28T06:54:55.161Z,1005.79
2019-02-28T06:55:55.122Z,1005.81
2019-02-28T06:56:55.328Z,1005.83
2019-02-28T06:57:55.073Z,1005.80
2019-02-28T06:58:55.049Z,1005.84
2019-02-28T06:59:55.029Z,1005.80
2019-02-28T07:00:55.010Z,1005.77
2019-02-28T07:01:57.587Z,1005.72
2019-02-28T07:02:54.961Z,1005.64
2019-02-28T07:03:54.940Z,1005.68
2019-02-28T07:04:54.912Z,1005.68
2019-02-28T07:05:57.605Z,1005.67
2019-02-28T07:06:54.867Z,1005.65
2019-02-28T07:07:54.845Z,1005.60
2019-02-28T07:08:54.823Z,1005.61
2019-02-28T07:09:54.799Z,1005.54
2019-02-28T07:10:54.776Z,1005.47
2019-02-28T07:11:55.752Z,1005.47
2019-02-28T07:12:54.735Z,1005.53
2019-02-28T07:13:54.711Z,1005.49
2019-02-28T07:14:54.689Z,1005.49
2019-02-28T07:15:55.618Z,1005.47
2019-02-28T07:16:54.639Z,1005.42
2019-02-28T07:17:54.621Z,1005.41
2019-02-28T07:18:54.593Z,1005.45
2019-02-28T07:19:54.573Z,1005.47
2019-02-28T07:20:54.552Z,1005.52
2019-02-28T07:21:54.523Z,1005.63
2019-02-28T07:22:55.694Z,1005.65
2019-02-28T07:23:54.483Z,1005.60
2019-02-28T07:24:54.463Z,1005.69
2019-02-28T07:25:54.443Z,1005.73
2019-02-28T07:26:54.417Z,1005.78
2019-02-28T07:27:54.396Z,1005.71
2019-02-28T07:28:54.371Z,1005.70
2019-02-28T07:29:54.347Z,1005.72
2019-02-28T07:30:54.341Z,1005.66
2019-02-28T07:32:00.026Z,1005.67
2019-02-28T07:32:54.279Z,1005.62
2019-02-28T07:33:54.263Z,1005.65
2019-02-28T07:34:55.001Z,1005.65
2019-02-28T07:35:54.215Z,1005.64
2019-02-28T07:36:54.189Z,1005.68
2019-02-28T07:37:54.631Z,1005.76
2019-02-28T07:38:54.148Z,1005.77
2019-02-28T07:39:54.124Z,1005.86
2019-02-28T07:40:54.112Z,1005.84
2019-02-28T07:41:54.082Z,1005.86
2019-02-28T07:42:54.061Z,1005.87
2019-02-28T07:43:54.036Z,1005.83
2019-02-28T07:44:58.000Z,1005.82
2019-02-28T07:45:53.997Z,1005.83
2019-02-28T07:46:53.972Z,1005.80
2019-02-28T07:47:53.942Z,1005.79
2019-02-28T07:48:53.932Z,1005.82
2019-02-28T07:49:53.905Z,1005.80
2019-02-28T07:50:53.882Z,1005.86
2019-02-28T07:51:56.929Z,1005.86
2019-02-28T07:52:53.838Z,1005.89
2019-02-28T07:53:53.822Z,1005.88
2019-02-28T07:54:55.789Z,1005.93
2019-02-28T07:55:53.783Z,1005.96
2019-02-28T07:56:53.762Z,1005.94
2019-02-28T07:57:56.468Z,1005.98
2019-02-28T07:58:53.710Z,1005.91
2019-02-28T07:59:53.695Z,1005.98
2019-02-28T08:00:53.736Z,1006.02
2019-02-28T08:01:53.649Z,1006.03
2019-02-28T08:02:53.626Z,1006.07
2019-02-28T08:03:53.605Z,1006.08
2019-02-28T08:04:54.545Z,1006.12
2019-02-28T08:05:53.560Z,1006.08
2019-02-28T08:06:54.866Z,1006.16
2019-02-28T08:07:53.539Z,1006.18
2019-02-28T08:08:53.498Z,1006.12
2019-02-28T08:09:53.485Z,1006.11
2019-02-28T08:10:53.453Z,1006.12
2019-02-28T08:11:55.143Z,1006.15
2019-02-28T08:12:53.418Z,1006.11
2019-02-28T08:13:55.494Z,1006.14
2019-02-28T08:14:53.381Z,1006.18
2019-02-28T08:15:56.896Z,1006.18
2019-02-28T08:16:53.336Z,1006.21
2019-02-28T08:17:53.314Z,1006.20
2019-02-28T08:18:53.295Z,1006.15
2019-02-28T08:19:53.282Z,1006.21
2019-02-28T08:20:53.256Z,1006.13
2019-02-28T08:21:53.236Z,1006.13
2019-02-28T08:22:56.823Z,1006.15
2019-02-28T08:23:53.197Z,1006.15
2019-02-28T08:24:53.180Z,1006.12
2019-02-28T08:25:53.164Z,1006.14
2019-02-28T08:26:53.651Z,1006.09
2019-02-28T08:27:53.125Z,1006.06
2019-02-28T08:28:53.102Z,1006.11
2019-02-28T08:29:53.084Z,1006.13
2019-02-28T08:30:55.368Z,1006.11
2019-02-28T08:31:53.056Z,1006.17
2019-02-28T08:32:53.035Z,1006.18
2019-02-28T08:33:53.012Z,1006.22
2019-02-28T08:34:55.510Z,1006.18
2019-02-28T08:35:52.976Z,1006.21
2019-02-28T08:36:52.958Z,1006.24
2019-02-28T08:37:57.019Z,1006.24
2019-02-28T08:38:52.922Z,1006.24
2019-02-28T08:39:52.905Z,1006.22
2019-02-28T08:40:52.892Z,1006.26
2019-02-28T08:41:52.896Z,1006.27
2019-02-28T08:42:52.863Z,1006.25
2019-02-28T08:43:52.842Z,1006.33
2019-02-28T08:44:58.090Z,1006.26
2019-02-28T08:45:52.807Z,1006.25
2019-02-28T08:46:52.792Z,1006.23
2019-02-28T08:47:56.718Z,1006.23
2019-02-28T08:48:52.763Z,1006.27
2019-02-28T08:49:52.740Z,1006.25
2019-02-28T08:50:55.711Z,1006.16
2019-02-28T08:51:52.714Z,1006.17
2019-02-28T08:52:52.702Z,1006.14
2019-02-28T08:53:52.688Z,1006.06
2019-02-28T08:54:52.666Z,1005.98
2019-02-28T08:55:52.657Z,1005.98
2019-02-28T08:56:52.640Z,1005.97
2019-02-28T08:57:56.976Z,1006.00
2019-02-28T08:58:52.607Z,1005.98
2019-02-28T08:59:56.240Z,1005.95
2019-02-28T09:00:52.590Z,1005.94
2019-02-28T09:01:52.570Z,1005.93
2019-02-28T09:02:53.667Z,1005.97
2019-02-28T09:03:52.539Z,1005.99
2019-02-28T09:04:52.524Z,1006.03
2019-02-28T09:05:52.510Z,1006.05
2019-02-28T09:06:52.498Z,1006.03
2019-02-28T09:07:52.491Z,1006.07
2019-02-28T09:08:52.469Z,1006.05
2019-02-28T09:09:52.456Z,1006.10
2019-02-28T09:10:52.449Z,1006.14
2019-02-28T09:11:52.764Z,1006.21
2019-02-28T09:12:52.419Z,1006.23
2019-02-28T09:13:52.404Z,1006.24
2019-02-28T09:14:55.334Z,1006.25
2019-02-28T09:15:52.384Z,1006.16
2019-02-28T09:16:52.369Z,1006.11
2019-02-28T09:17:52.351Z,1005.99
2019-02-28T09:18:52.341Z,1005.99
2019-02-28T09:19:52.329Z,1005.98
2019-02-28T09:20:52.314Z,1006.00
2019-02-28T09:21:52.838Z,1006.03
2019-02-28T09:22:52.308Z,1006.02
2019-02-28T09:23:52.275Z,1006.08
2019-02-28T09:24:52.261Z,1006.04
2019-02-28T09:25:53.405Z,1006.18
2019-02-28T09:26:52.237Z,1006.18
2019-02-28T09:27:52.223Z,1006.21
2019-02-28T09:28:52.214Z,1006.27
2019-02-28T09:29:54.840Z,1006.28
2019-02-28T09:30:52.185Z,1006.19
2019-02-28T09:31:52.176Z,1006.21
2019-02-28T09:32:52.157Z,1006.20
2019-02-28T09:33:52.146Z,1006.23
2019-02-28T09:34:52.132Z,1006.26
2019-02-28T09:35:52.121Z,1006.22
2019-02-28T09:36:55.267Z,1006.15
2019-02-28T09:37:52.096Z,1006.23
2019-02-28T09:38:57.054Z,1006.19
2019-02-28T09:39:54.257Z,1006.13
2019-02-28T09:40:52.064Z,1006.19
2019-02-28T09:41:52.061Z,1006.22
2019-02-28T09:42:52.056Z,1006.23
2019-02-28T09:43:52.029Z,1006.36
2019-02-28T09:44:52.012Z,1006.37
2019-02-28T09:45:52.007Z,1006.37
2019-02-28T09:46:51.993Z,1006.36
2019-02-28T09:47:51.983Z,1006.40
2019-02-28T09:48:51.976Z,1006.30
2019-02-28T09:49:51.963Z,1006.37
2019-02-28T09:50:57.914Z,1006.48
2019-02-28T09:51:51.943Z,1006.33
2019-02-28T09:52:51.930Z,1006.39
2019-02-28T09:53:51.920Z,1006.76
2019-02-28T09:54:51.906Z,1007.20
2019-02-28T09:55:51.898Z,1007.57
2019-02-28T09:56:51.886Z,1007.81
2019-02-28T09:57:54.832Z,1007.53
2019-02-28T09:58:51.867Z,1007.55
2019-02-28T09:59:51.857Z,1007.55
2019-02-28T10:00:51.849Z,1007.62
2019-02-28T10:02:00.932Z,1007.72
2019-02-28T10:02:53.056Z,1007.60
2019-02-28T10:03:52.173Z,1007.76
2019-02-28T10:04:51.821Z,1007.75
2019-02-28T10:05:51.803Z,1007.61
2019-02-28T10:06:52.283Z,1007.37
2019-02-28T10:07:51.784Z,1007.14
2019-02-28T10:08:51.779Z,1007.40
2019-02-28T10:09:51.775Z,1007.27
2019-02-28T10:10:52.509Z,1007.41
2019-02-28T10:11:51.762Z,1007.44
2019-02-28T10:12:51.747Z,1007.32
2019-02-28T10:13:53.181Z,1007.58
2019-02-28T10:14:52.078Z,1007.48
2019-02-28T10:15:51.724Z,1007.74
2019-02-28T10:16:52.683Z,1007.46
2019-02-28T10:17:51.700Z,1007.85
2019-02-28T10:18:51.697Z,1007.64
2019-02-28T10:19:52.249Z,1007.40
2019-02-28T10:20:51.678Z,1007.46
2019-02-28T10:21:52.351Z,1007.22
2019-02-28T10:22:51.661Z,1007.36
2019-02-28T10:23:53.418Z,1007.24
2019-02-28T10:24:51.643Z,1007.04
2019-02-28T10:25:51.638Z,1006.74
2019-02-28T10:26:52.380Z,1006.67
2019-02-28T10:27:51.622Z,1006.62
2019-02-28T10:28:51.610Z,1006.56
2019-02-28T10:29:51.609Z,1006.49
2019-02-28T10:30:51.599Z,1006.40
2019-02-28T10:31:51.587Z,1006.49
2019-02-28T10:32:51.578Z,1006.57
2019-02-28T10:33:52.494Z,1006.41
2019-02-28T10:34:51.562Z,1006.36
2019-02-28T10:35:51.548Z,1006.40
2019-02-28T10:36:51.540Z,1006.30
2019-02-28T10:37:57.197Z,1006.34
2019-02-28T10:38:51.521Z,1006.30
2019-02-28T10:39:51.521Z,1006.24
2019-02-28T10:40:52.492Z,1006.24
2019-02-28T10:41:51.492Z,1006.24
2019-02-28T10:42:51.486Z,1006.38
2019-02-28T10:43:55.602Z,1006.30
2019-02-28T10:44:51.463Z,1006.42
2019-02-28T10:45:51.458Z,1006.50
2019-02-28T10:46:53.953Z,1006.57
2019-02-28T10:47:51.434Z,1006.64
2019-02-28T10:48:51.423Z,1006.56
2019-02-28T10:49:51.411Z,1006.53
2019-02-28T10:50:51.408Z,1006.52
2019-02-28T10:51:51.394Z,1006.55
2019-02-28T10:52:51.383Z,1006.60
2019-02-28T10:53:51.375Z,1006.47
2019-02-28T10:54:51.366Z,1006.51
2019-02-28T10:55:54.354Z,1006.46
2019-02-28T10:56:51.346Z,1006.42
2019-02-28T10:57:51.336Z,1006.41
2019-02-28T10:58:51.321Z,1006.38
2019-02-28T10:59:51.311Z,1006.39
2019-02-28T11:00:51.303Z,1006.38
2019-02-28T11:01:51.296Z,1006.47
2019-02-28T11:02:54.166Z,1006.40
2019-02-28T11:03:51.278Z,1006.36
2019-02-28T11:04:51.258Z,1006.32
2019-02-28T11:05:54.305Z,1006.24
2019-02-28T11:06:51.238Z,1006.25
2019-02-28T11:07:51.229Z,1006.26
2019-02-28T11:08:51.218Z,1006.29
2019-02-28T11:09:51.206Z,1006.32
2019-02-28T11:10:51.198Z,1006.39
2019-02-28T11:11:51.186Z,1006.35
2019-02-28T11:12:51.178Z,1006.36
2019-02-28T11:13:51.164Z,1006.42
2019-02-28T11:14:51.150Z,1006.40
2019-02-28T11:15:51.143Z,1006.36
2019-02-28T11:16:51.130Z,1006.35
2019-02-28T11:17:51.117Z,1006.36
2019-02-28T11:18:51.113Z,1006.30
2019-02-28T11:19:52.001Z,1006.31
2019-02-28T11:20:51.087Z,1006.38
2019-02-28T11:21:51.079Z,1006.34
2019-02-28T11:22:51.066Z,1006.37
2019-02-28T11:23:51.060Z,1006.33
2019-02-28T11:24:51.050Z,1006.39
2019-02-28T11:25:52.972Z,1006.38
2019-02-28T11:26:51.029Z,1006.41
2019-02-28T11:27:53.747Z,1006.37
2019-02-28T11:28:51.003Z,1006.39
2019-02-28T11:29:50.997Z,1006.37
2019-02-28T11:30:50.989Z,1006.35
2019-02-28T11:31:54.184Z,1006.36
2019-02-28T11:32:50.959Z,1006.34
2019-02-28T11:33:50.950Z,1006.29
2019-02-28T11:34:50.948Z,1006.32
2019-02-28T11:35:50.928Z,1006.32
2019-02-28T11:36:50.919Z,1006.37
2019-02-28T11:37:50.917Z,1006.32
2019-02-28T11:38:52.558Z,1006.32
2019-02-28T11:39:50.885Z,1006.40
2019-02-28T11:40:57.046Z,1006.35
2019-02-28T11:41:52.712Z,1006.37
2019-02-28T11:42:50.849Z,1006.33
2019-02-28T11:43:50.846Z,1006.37
2019-02-28T11:44:50.835Z,1006.38
2019-02-28T11:45:50.818Z,1006.40
2019-02-28T11:46:50.817Z,1006.34
2019-02-28T11:47:50.794Z,1006.36
2019-02-28T11:48:51.011Z,1006.40
2019-02-28T11:49:50.775Z,1006.29
2019-02-28T11:50:50.765Z,1006.33
2019-02-28T11:51:53.066Z,1006.31
2019-02-28T11:52:50.741Z,1006.22
2019-02-28T11:53:50.728Z,1006.19
2019-02-28T11:54:50.719Z,1006.22
2019-02-28T11:55:53.350Z,1006.24
2019-02-28T11:56:50.699Z,1006.21
2019-02-28T11:57:50.683Z,1006.18
2019-02-28T11:58:51.701Z,1006.28
2019-02-28T11:59:50.660Z,1006.28
2019-02-28T12:00:50.647Z,1006.28
2019-02-28T12:01:50.633Z,1006.23
2019-02-28T12:02:53.298Z,1006.25
2019-02-28T12:03:50.613Z,1006.24
2019-02-28T12:04:50.603Z,1006.21